createdAt,value
2019-04-14T00:10:57.291Z,40.90
2019-04-14T00:13:28.594Z,40.55
2019-04-14T00:27:10.959Z,40.35
2019-04-14T00:29:41.535Z,39.80
2019-04-14T00:46:31.315Z,39.45
2019-04-14T01:00:29.733Z,43.08
2019-04-14T01:03:00.587Z,42.55
2019-04-14T01:05:37.563Z,43.05
2019-04-14T01:08:09.541Z,43.55
2019-04-14T01:21:48.135Z,41.18
2019-04-14T01:24:18.658Z,43.70
2019-04-14T01:37:25.170Z,34.50
2019-04-14T01:39:56.682Z,42.20
2019-04-14T01:43:02.161Z,39.83
2019-04-14T01:45:33.875Z,38.33
2019-04-14T01:48:11.250Z,35.78
2019-04-14T01:50:45.221Z,37.70
2019-04-14T02:04:13.848Z,35.38
2019-04-14T02:06:44.490Z,33.18
2019-04-14T02:22:50.624Z,36.95
2019-04-14T02:25:27.524Z,36.63
2019-04-14T02:28:00.131Z,39.33
2019-04-14T02:30:46.924Z,43.75
2019-04-14T02:33:40.563Z,44.63
2019-04-14T02:57:16.794Z,40.78
2019-04-14T03:05:01.882Z,45.70
2019-04-14T03:21:09.213Z,45.60
2019-04-14T03:23:46.369Z,50.55
2019-04-14T03:26:38.817Z,50.67
2019-04-14T03:35:23.792Z,50.55
2019-04-14T03:40:12.263Z,48.50
2019-04-14T03:42:43.572Z,48.92
2019-04-14T03:45:33.330Z,49.33
2019-04-14T03:48:31.572Z,50.40
2019-04-14T04:00:44.354Z,54.73
2019-04-14T04:03:15.234Z,51.48
2019-04-14T04:19:47.717Z,54.60
2019-04-14T04:33:37.913Z,58.20
2019-04-14T04:36:29.958Z,56.65
2019-04-14T04:39:28.448Z,54.50
2019-04-14T04:42:00.481Z,55.98
2019-04-14T04:44:33.468Z,55.83
2019-04-14T04:47:05.685Z,63.35
2019-04-14T04:49:38.332Z,56.92
2019-04-14T04:58:54.548Z,54.33
2019-04-14T05:01:25.406Z,55.17
2019-04-14T05:15:14.807Z,52.65
2019-04-14T05:17:47.423Z,61.80
2019-04-14T05:31:45.005Z,50.83
2019-04-14T05:34:15.572Z,53.65
2019-04-14T05:58:47.841Z,58.90
2019-04-14T06:01:20.357Z,54.18
2019-04-14T06:15:13.913Z,54.90
2019-04-14T06:17:45.023Z,56.98
2019-04-14T06:31:31.487Z,46.23
2019-04-14T06:34:06.944Z,61.90
2019-04-14T06:47:15.594Z,58.40
2019-04-14T06:49:49.173Z,56.37
2019-04-14T07:02:54.450Z,53.98
2019-04-14T07:05:25.145Z,59.60
2019-04-14T07:08:02.193Z,57.10
2019-04-14T07:10:32.755Z,65.92
2019-04-14T07:24:31.715Z,65.60
2019-04-14T07:27:02.619Z,60.00
2019-04-14T07:40:10.021Z,59.58
2019-04-14T07:42:48.321Z,61.90
2019-04-14T07:56:09.408Z,49.40
2019-04-14T07:58:46.016Z,55.92
2019-04-14T08:01:51.937Z,55.95
2019-04-14T08:04:24.299Z,52.40
2019-04-14T08:17:52.766Z,52.98
2019-04-14T08:20:27.742Z,57.48
2019-04-14T08:34:23.959Z,56.08
2019-04-14T08:36:55.718Z,55.05
2019-04-14T08:39:32.591Z,57.78
2019-04-14T08:42:15.712Z,57.17
2019-04-14T08:44:54.134Z,57.78
2019-04-14T08:47:36.026Z,53.95
2019-04-14T08:50:22.421Z,58.78
2019-04-14T09:03:48.401Z,51.98
2019-04-14T09:06:36.080Z,50.92
2019-04-14T09:09:12.898Z,51.02
2019-04-14T09:11:45.176Z,52.43
2019-04-14T09:14:23.578Z,47.23
2019-04-14T09:16:54.230Z,46.50
2019-04-14T09:19:34.367Z,43.98
2019-04-14T09:22:05.926Z,48.35
2019-04-14T09:25:12.219Z,49.60
2019-04-14T09:27:43.359Z,58.38
2019-04-14T09:41:11.920Z,53.08
2019-04-14T09:43:43.387Z,50.92
2019-04-14T09:46:18.936Z,58.92
2019-04-14T09:48:50.222Z,52.43
2019-04-14T09:51:28.390Z,53.68
2019-04-14T09:53:59.529Z,52.50
2019-04-14T09:56:37.847Z,54.95
2019-04-14T09:59:08.518Z,51.65
2019-04-14T10:12:49.248Z,52.20
2019-04-14T10:15:20.244Z,49.67
2019-04-14T10:29:05.780Z,60.33
2019-04-14T10:31:36.974Z,59.00
2019-04-14T10:34:14.051Z,55.23
2019-04-14T10:36:44.893Z,47.85
2019-04-14T10:39:24.323Z,48.10
2019-04-14T10:41:55.053Z,47.30
2019-04-14T10:44:31.935Z,52.13
2019-04-14T10:47:02.978Z,52.25
2019-04-14T10:49:39.803Z,51.23
2019-04-14T10:52:10.785Z,52.38
2019-04-14T11:08:54.917Z,60.63
2019-04-14T11:22:30.790Z,49.08
2019-04-14T11:25:01.332Z,41.70
2019-04-14T11:38:17.029Z,40.12
2019-04-14T11:40:49.900Z,43.85
2019-04-14T11:43:26.632Z,45.73
2019-04-14T11:45:59.034Z,39.08
2019-04-14T11:48:36.216Z,38.25
2019-04-14T11:51:07.672Z,40.85
2019-04-14T11:53:44.561Z,40.38
2019-04-14T11:56:15.773Z,42.40
2019-04-14T11:58:55.840Z,40.20
2019-04-14T12:01:35.936Z,48.08
2019-04-14T12:15:35.197Z,41.00
2019-04-14T12:18:05.758Z,35.63
2019-04-14T12:20:43.908Z,36.60
2019-04-14T12:23:16.023Z,37.95
2019-04-14T12:37:09.688Z,36.50
2019-04-14T12:39:40.327Z,35.63
2019-04-14T12:42:24.874Z,43.78
2019-04-14T12:45:03.603Z,37.93
2019-04-14T12:59:02.040Z,42.23
2019-04-14T13:01:37.489Z,41.25
2019-04-14T13:04:15.831Z,39.75
2019-04-14T13:06:46.348Z,42.80
2019-04-14T13:20:23.666Z,45.00
2019-04-14T13:22:54.102Z,40.03
2019-04-14T13:25:31.528Z,43.58
2019-04-14T13:28:02.122Z,40.45
2019-04-14T13:30:41.588Z,42.93
2019-04-14T13:33:12.540Z,45.73
2019-04-14T13:35:43.443Z,39.53
2019-04-14T13:38:20.409Z,37.33
2019-04-14T13:40:52.431Z,38.42
2019-04-14T14:14:43.251Z,46.25
2019-04-14T14:17:17.985Z,41.45
2019-04-14T14:19:50.162Z,40.20
2019-04-14T14:22:29.391Z,44.33
2019-04-14T14:36:30.299Z,40.98
2019-04-14T14:39:01.850Z,43.73
2019-04-14T14:53:11.885Z,43.42
2019-04-14T14:55:35.033Z,44.58
2019-04-14T15:09:29.067Z,44.38
2019-04-14T15:12:00.002Z,44.63
2019-04-14T15:24:58.959Z,44.03
2019-04-14T15:27:42.497Z,43.33
2019-04-14T15:41:34.899Z,45.63
2019-04-14T15:44:06.042Z,43.78
2019-04-14T15:46:44.241Z,50.73
2019-04-14T15:49:16.225Z,46.92
2019-04-14T15:58:54.353Z,38.88
2019-04-14T16:01:43.826Z,45.78
2019-04-14T16:14:53.702Z,42.73
2019-04-14T16:17:35.547Z,43.52
2019-04-14T16:31:39.197Z,44.05
2019-04-14T16:34:15.495Z,42.88
2019-04-14T16:47:53.325Z,39.05
2019-04-14T16:50:24.367Z,40.08
2019-04-14T16:53:04.318Z,39.48
2019-04-14T16:55:37.260Z,41.45
2019-04-14T16:58:25.508Z,35.53
2019-04-14T17:01:00.867Z,43.50
2019-04-14T17:15:15.711Z,44.58
2019-04-14T17:18:05.086Z,40.85
2019-04-14T17:31:46.226Z,42.43
2019-04-14T17:34:30.991Z,43.17
2019-04-14T17:37:08.684Z,37.90
2019-04-14T17:39:47.110Z,41.42
2019-04-14T17:42:19.982Z,42.85
2019-04-14T17:56:20.053Z,38.02
2019-04-14T17:58:52.225Z,46.40
2019-04-14T18:12:33.779Z,45.70
2019-04-14T18:15:20.381Z,43.25
2019-04-14T18:29:26.316Z,43.02
2019-04-14T18:31:59.358Z,40.25
2019-04-14T18:45:59.992Z,37.42
2019-04-14T18:48:35.115Z,34.85
2019-04-14T18:51:26.810Z,37.88
2019-04-14T18:54:00.996Z,43.48
2019-04-14T18:59:28.706Z,38.05
2019-04-14T19:02:01.206Z,43.02
2019-04-14T19:15:18.055Z,44.15
2019-04-14T19:17:53.558Z,46.80
2019-04-14T19:48:09.910Z,45.70
2019-04-14T19:50:40.914Z,46.68
2019-04-14T20:07:09.915Z,49.48
2019-04-14T20:09:46.692Z,51.48
2019-04-14T20:12:18.033Z,49.93
2019-04-14T20:26:19.800Z,46.53
2019-04-14T20:28:55.301Z,52.35
2019-04-14T20:46:23.222Z,47.03
2019-04-14T20:48:54.303Z,46.50
2019-04-14T21:06:49.057Z,47.25
2019-04-14T21:09:25.229Z,48.30
2019-04-14T21:23:35.758Z,39.48
2019-04-14T21:26:26.385Z,44.67
2019-04-14T21:29:25.986Z,48.95
2019-04-14T21:32:03.067Z,47.65
2019-04-14T21:45:11.849Z,39.80
2019-04-14T21:47:43.562Z,42.17
2019-04-14T21:50:21.467Z,38.28
2019-04-14T21:52:52.655Z,39.60
2019-04-14T22:10:16.821Z,33.98
2019-04-14T22:12:48.271Z,36.42
2019-04-14T22:15:19.115Z,34.43
2019-04-14T22:17:49.800Z,31.70
2019-04-14T22:31:52.534Z,36.00
2019-04-14T22:34:23.622Z,35.38
2019-04-14T22:37:02.238Z,30.35
2019-04-14T22:39:33.177Z,29.87
2019-04-14T22:53:27.527Z,32.88
2019-04-14T22:55:59.489Z,30.43
2019-04-14T23:09:40.837Z,32.93
2019-04-14T23:12:29.695Z,26.68
2019-04-14T23:15:24.754Z,30.62
2019-04-14T23:18:07.546Z,24.57
2019-04-14T23:20:54.694Z,27.58
2019-04-14T23:23:36.228Z,29.77
2019-04-14T23:26:13.499Z,30.25
2019-04-14T23:28:44.670Z,26.73
2019-04-14T23:31:22.132Z,28.23
2019-04-14T23:33:52.759Z,24.70
2019-04-14T23:47:53.320Z,24.80
2019-04-14T23:50:23.889Z,23.77
